sensor_id;sensor_type;location;lat;lon;timestamp;P1;durP1;ratioP1;P2;durP2;ratioP2
76593;SDS011;65482;50.240;14.302;2023-02-28T00:00:17;12.45;;;5.43;;
76593;SDS011;65482;50.240;14.302;2023-02-28T00:03:03;12.07;;;6.68;;
76593;SDS011;65482;50.240;14.302;2023-02-28T00:05:30;14.70;;;7.25;;
76593;SDS011;65482;50.240;14.302;2023-02-28T00:07:55;9.90;;;5.88;;
76593;SDS011;65482;50.240;14.302;2023-02-28T00:10:22;14.70;;;6.32;;
76593;SDS011;65482;50.240;14.302;2023-02-28T00:12:50;14.98;;;7.00;;
76593;SDS011;65482;50.240;14.302;2023-02-28T00:15:16;15.85;;;7.32;;
76593;SDS011;65482;50.240;14.302;2023-02-28T00:17:42;14.50;;;7.30;;
76593;SDS011;65482;50.240;14.302;2023-02-28T00:20:08;14.55;;;7.07;;
76593;SDS011;65482;50.240;14.302;2023-02-28T00:22:40;15.00;;;6.50;;
76593;SDS011;65482;50.240;14.302;2023-02-28T00:25:08;14.82;;;7.35;;
76593;SDS011;65482;50.240;14.302;2023-02-28T00:27:35;18.77;;;7.32;;
76593;SDS011;65482;50.240;14.302;2023-02-28T00:30:02;16.48;;;6.72;;
76593;SDS011;65482;50.240;14.302;2023-02-28T00:32:29;10.05;;;5.82;;
76593;SDS011;65482;50.240;14.302;2023-02-28T00:34:55;10.30;;;6.07;;
76593;SDS011;65482;50.240;14.302;2023-02-28T00:37:21;13.57;;;6.28;;
76593;SDS011;65482;50.240;14.302;2023-02-28T00:39:47;11.95;;;6.28;;
76593;SDS011;65482;50.240;14.302;2023-02-28T00:42:12;11.95;;;6.20;;
76593;SDS011;65482;50.240;14.302;2023-02-28T00:44:38;10.15;;;4.28;;
76593;SDS011;65482;50.240;14.302;2023-02-28T00:47:03;13.70;;;7.05;;
76593;SDS011;65482;50.240;14.302;2023-02-28T00:49:29;11.02;;;5.85;;
76593;SDS011;65482;50.240;14.302;2023-02-28T00:51:55;9.85;;;5.35;;
76593;SDS011;65482;50.240;14.302;2023-02-28T00:54:21;11.40;;;5.15;;
76593;SDS011;65482;50.240;14.302;2023-02-28T00:56:48;12.95;;;6.28;;
76593;SDS011;65482;50.240;14.302;2023-02-28T00:59:14;12.10;;;5.75;;
76593;SDS011;65482;50.240;14.302;2023-02-28T01:01:41;14.02;;;5.95;;
76593;SDS011;65482;50.240;14.302;2023-02-28T01:04:08;12.25;;;6.30;;
76593;SDS011;65482;50.240;14.302;2023-02-28T01:06:34;12.20;;;5.85;;
76593;SDS011;65482;50.240;14.302;2023-02-28T01:09:00;10.77;;;6.32;;
76593;SDS011;65482;50.240;14.302;2023-02-28T01:11:25;13.35;;;6.47;;
76593;SDS011;65482;50.240;14.302;2023-02-28T01:13:51;11.38;;;5.80;;
76593;SDS011;65482;50.240;14.302;2023-02-28T01:16:17;11.43;;;5.70;;
76593;SDS011;65482;50.240;14.302;2023-02-28T01:18:43;12.55;;;5.95;;
76593;SDS011;65482;50.240;14.302;2023-02-28T01:21:10;10.80;;;6.22;;
76593;SDS011;65482;50.240;14.302;2023-02-28T01:23:39;15.85;;;6.63;;
76593;SDS011;65482;50.240;14.302;2023-02-28T01:26:12;14.38;;;5.88;;
76593;SDS011;65482;50.240;14.302;2023-02-28T01:31:05;11.80;;;5.60;;
76593;SDS011;65482;50.240;14.302;2023-02-28T01:33:31;11.13;;;5.85;;
76593;SDS011;65482;50.240;14.302;2023-02-28T01:36:01;10.57;;;5.53;;
76593;SDS011;65482;50.240;14.302;2023-02-28T01:38:29;12.57;;;6.13;;
76593;SDS011;65482;50.240;14.302;2023-02-28T01:40:55;13.43;;;6.30;;
76593;SDS011;65482;50.240;14.302;2023-02-28T01:45:54;12.93;;;6.70;;
76593;SDS011;65482;50.240;14.302;2023-02-28T01:48:29;15.38;;;6.65;;
76593;SDS011;65482;50.240;14.302;2023-02-28T01:50:58;11.82;;;5.78;;
76593;SDS011;65482;50.240;14.302;2023-02-28T01:53:34;12.60;;;5.80;;
76593;SDS011;65482;50.240;14.302;2023-02-28T01:56:04;11.63;;;5.70;;
76593;SDS011;65482;50.240;14.302;2023-02-28T01:58:32;11.63;;;5.00;;
76593;SDS011;65482;50.240;14.302;2023-02-28T02:00:58;12.52;;;6.55;;
76593;SDS011;65482;50.240;14.302;2023-02-28T02:03:23;13.45;;;5.45;;
76593;SDS011;65482;50.240;14.302;2023-02-28T02:05:49;13.57;;;6.20;;
76593;SDS011;65482;50.240;14.302;2023-02-28T02:08:19;13.75;;;5.97;;
76593;SDS011;65482;50.240;14.302;2023-02-28T02:10:48;16.85;;;5.70;;
76593;SDS011;65482;50.240;14.302;2023-02-28T02:22:12;11.75;;;5.57;;
76593;SDS011;65482;50.240;14.302;2023-02-28T02:25:11;10.77;;;6.10;;
76593;SDS011;65482;50.240;14.302;2023-02-28T02:28:01;12.68;;;6.13;;
76593;SDS011;65482;50.240;14.302;2023-02-28T02:38:32;15.38;;;6.13;;
76593;SDS011;65482;50.240;14.302;2023-02-28T02:41:05;14.55;;;6.20;;
76593;SDS011;65482;50.240;14.302;2023-02-28T02:43:50;13.00;;;6.10;;
76593;SDS011;65482;50.240;14.302;2023-02-28T02:46:41;10.32;;;5.90;;
76593;SDS011;65482;50.240;14.302;2023-02-28T02:49:09;13.65;;;5.90;;
76593;SDS011;65482;50.240;14.302;2023-02-28T02:51:41;12.75;;;6.45;;
76593;SDS011;65482;50.240;14.302;2023-02-28T02:54:08;12.82;;;5.97;;
76593;SDS011;65482;50.240;14.302;2023-02-28T02:56:41;13.10;;;5.85;;
76593;SDS011;65482;50.240;14.302;2023-02-28T02:59:11;16.45;;;6.57;;
76593;SDS011;65482;50.240;14.302;2023-02-28T03:01:39;11.68;;;6.22;;
76593;SDS011;65482;50.240;14.302;2023-02-28T03:04:13;12.73;;;6.90;;
76593;SDS011;65482;50.240;14.302;2023-02-28T03:06:43;13.98;;;6.80;;
76593;SDS011;65482;50.240;14.302;2023-02-28T03:09:09;12.93;;;6.18;;
76593;SDS011;65482;50.240;14.302;2023-02-28T03:11:35;16.30;;;6.75;;
76593;SDS011;65482;50.240;14.302;2023-02-28T03:19:17;16.88;;;6.38;;
76593;SDS011;65482;50.240;14.302;2023-02-28T03:27:29;13.25;;;5.70;;
76593;SDS011;65482;50.240;14.302;2023-02-28T03:30:03;12.35;;;6.28;;
76593;SDS011;65482;50.240;14.302;2023-02-28T03:35:12;13.38;;;6.05;;
76593;SDS011;65482;50.240;14.302;2023-02-28T03:37:48;20.17;;;6.88;;
76593;SDS011;65482;50.240;14.302;2023-02-28T03:40:19;15.75;;;7.22;;
76593;SDS011;65482;50.240;14.302;2023-02-28T03:42:49;14.20;;;6.63;;
76593;SDS011;65482;50.240;14.302;2023-02-28T03:45:20;13.57;;;6.97;;
76593;SDS011;65482;50.240;14.302;2023-02-28T03:47:52;16.23;;;7.68;;
76593;SDS011;65482;50.240;14.302;2023-02-28T03:50:34;14.98;;;6.95;;
76593;SDS011;65482;50.240;14.302;2023-02-28T03:53:06;12.82;;;6.82;;
76593;SDS011;65482;50.240;14.302;2023-02-28T03:55:44;17.50;;;7.10;;
76593;SDS011;65482;50.240;14.302;2023-02-28T03:58:15;14.85;;;7.60;;
76593;SDS011;65482;50.240;14.302;2023-02-28T04:00:48;14.75;;;7.13;;
76593;SDS011;65482;50.240;14.302;2023-02-28T04:03:21;16.42;;;7.60;;
76593;SDS011;65482;50.240;14.302;2023-02-28T04:05:53;14.20;;;7.30;;
76593;SDS011;65482;50.240;14.302;2023-02-28T04:08:20;15.27;;;8.00;;
76593;SDS011;65482;50.240;14.302;2023-02-28T04:10:48;19.00;;;7.85;;
76593;SDS011;65482;50.240;14.302;2023-02-28T04:13:19;20.83;;;8.50;;
76593;SDS011;65482;50.240;14.302;2023-02-28T04:15:44;19.08;;;8.35;;
76593;SDS011;65482;50.240;14.302;2023-02-28T04:18:10;16.00;;;7.70;;
76593;SDS011;65482;50.240;14.302;2023-02-28T04:20:36;17.73;;;7.40;;
76593;SDS011;65482;50.240;14.302;2023-02-28T04:23:01;16.13;;;8.27;;
76593;SDS011;65482;50.240;14.302;2023-02-28T04:25:27;19.65;;;8.52;;
76593;SDS011;65482;50.240;14.302;2023-02-28T04:27:52;18.35;;;7.80;;
76593;SDS011;65482;50.240;14.302;2023-02-28T04:30:18;14.75;;;7.03;;
76593;SDS011;65482;50.240;14.302;2023-02-28T04:32:43;15.98;;;7.32;;
76593;SDS011;65482;50.240;14.302;2023-02-28T04:35:09;15.50;;;7.25;;
76593;SDS011;65482;50.240;14.302;2023-02-28T04:37:34;14.82;;;7.25;;
76593;SDS011;65482;50.240;14.302;2023-02-28T04:40:02;14.90;;;7.20;;
76593;SDS011;65482;50.240;14.302;2023-02-28T04:42:28;15.38;;;7.55;;
76593;SDS011;65482;50.240;14.302;2023-02-28T04:45:00;15.93;;;8.02;;
76593;SDS011;65482;50.240;14.302;2023-02-28T04:47:27;18.27;;;8.65;;
76593;SDS011;65482;50.240;14.302;2023-02-28T04:49:52;17.88;;;8.63;;
76593;SDS011;65482;50.240;14.302;2023-02-28T04:52:18;19.88;;;8.35;;
76593;SDS011;65482;50.240;14.302;2023-02-28T04:54:43;22.05;;;8.55;;
76593;SDS011;65482;50.240;14.302;2023-02-28T04:57:09;14.73;;;8.02;;
76593;SDS011;65482;50.240;14.302;2023-02-28T04:59:34;19.65;;;8.18;;
76593;SDS011;65482;50.240;14.302;2023-02-28T05:02:00;20.35;;;8.75;;
76593;SDS011;65482;50.240;14.302;2023-02-28T05:04:34;21.42;;;8.57;;
76593;SDS011;65482;50.240;14.302;2023-02-28T05:07:01;14.35;;;7.65;;
76593;SDS011;65482;50.240;14.302;2023-02-28T05:09:27;17.88;;;8.15;;
76593;SDS011;65482;50.240;14.302;2023-02-28T05:11:53;15.15;;;7.53;;
76593;SDS011;65482;50.240;14.302;2023-02-28T05:14:19;19.90;;;8.70;;
76593;SDS011;65482;50.240;14.302;2023-02-28T05:16:45;20.52;;;8.30;;
76593;SDS011;65482;50.240;14.302;2023-02-28T05:19:10;19.40;;;7.78;;
76593;SDS011;65482;50.240;14.302;2023-02-28T05:21:36;16.95;;;7.90;;
76593;SDS011;65482;50.240;14.302;2023-02-28T05:24:06;17.88;;;7.97;;
76593;SDS011;65482;50.240;14.302;2023-02-28T05:26:35;19.42;;;8.00;;
76593;SDS011;65482;50.240;14.302;2023-02-28T05:29:01;18.05;;;7.95;;
76593;SDS011;65482;50.240;14.302;2023-02-28T05:31:27;16.80;;;8.25;;
76593;SDS011;65482;50.240;14.302;2023-02-28T05:33:52;20.48;;;8.18;;
76593;SDS011;65482;50.240;14.302;2023-02-28T05:36:18;18.35;;;7.75;;
76593;SDS011;65482;50.240;14.302;2023-02-28T05:38:48;17.95;;;8.63;;
76593;SDS011;65482;50.240;14.302;2023-02-28T05:41:15;22.40;;;9.00;;
76593;SDS011;65482;50.240;14.302;2023-02-28T05:43:40;18.75;;;7.90;;
76593;SDS011;65482;50.240;14.302;2023-02-28T05:46:07;20.33;;;9.52;;
76593;SDS011;65482;50.240;14.302;2023-02-28T05:48:34;18.88;;;9.20;;
76593;SDS011;65482;50.240;14.302;2023-02-28T05:51:02;21.90;;;8.25;;
76593;SDS011;65482;50.240;14.302;2023-02-28T05:53:28;16.00;;;7.88;;
76593;SDS011;65482;50.240;14.302;2023-02-28T05:55:54;16.38;;;7.80;;
76593;SDS011;65482;50.240;14.302;2023-02-28T05:58:19;17.88;;;7.47;;
76593;SDS011;65482;50.240;14.302;2023-02-28T06:00:45;18.08;;;8.30;;
76593;SDS011;65482;50.240;14.302;2023-02-28T06:03:10;16.52;;;8.55;;
76593;SDS011;65482;50.240;14.302;2023-02-28T06:05:36;19.98;;;8.90;;
76593;SDS011;65482;50.240;14.302;2023-02-28T06:08:03;16.90;;;8.10;;
76593;SDS011;65482;50.240;14.302;2023-02-28T06:10:32;15.85;;;7.95;;
76593;SDS011;65482;50.240;14.302;2023-02-28T06:13:02;17.88;;;8.02;;
76593;SDS011;65482;50.240;14.302;2023-02-28T06:15:29;25.45;;;9.30;;
76593;SDS011;65482;50.240;14.302;2023-02-28T06:17:55;17.88;;;8.75;;
76593;SDS011;65482;50.240;14.302;2023-02-28T06:20:24;20.55;;;7.95;;
76593;SDS011;65482;50.240;14.302;2023-02-28T06:22:54;21.35;;;7.72;;
76593;SDS011;65482;50.240;14.302;2023-02-28T06:25:21;17.30;;;8.32;;
76593;SDS011;65482;50.240;14.302;2023-02-28T06:27:48;17.10;;;8.50;;
76593;SDS011;65482;50.240;14.302;2023-02-28T06:30:14;20.05;;;8.25;;
76593;SDS011;65482;50.240;14.302;2023-02-28T06:37:18;19.70;;;8.63;;
76593;SDS011;65482;50.240;14.302;2023-02-28T06:48:12;21.98;;;8.88;;
76593;SDS011;65482;50.240;14.302;2023-02-28T06:55:52;20.63;;;9.60;;
76593;SDS011;65482;50.240;14.302;2023-02-28T07:36:27;16.50;;;8.23;;
76593;SDS011;65482;50.240;14.302;2023-02-28T07:39:14;12.20;;;7.20;;
76593;SDS011;65482;50.240;14.302;2023-02-28T08:42:04;13.85;;;7.20;;
76593;SDS011;65482;50.240;14.302;2023-02-28T08:45:21;15.95;;;10.73;;
76593;SDS011;65482;50.240;14.302;2023-02-28T08:48:03;12.02;;;7.60;;
76593;SDS011;65482;50.240;14.302;2023-02-28T08:50:54;12.02;;;6.90;;
76593;SDS011;65482;50.240;14.302;2023-02-28T08:53:46;12.88;;;7.03;;
76593;SDS011;65482;50.240;14.302;2023-02-28T08:56:27;14.25;;;6.80;;
76593;SDS011;65482;50.240;14.302;2023-02-28T08:58:54;10.23;;;6.38;;
76593;SDS011;65482;50.240;14.302;2023-02-28T09:01:28;10.38;;;6.30;;
76593;SDS011;65482;50.240;14.302;2023-02-28T09:04:04;9.65;;;5.95;;
76593;SDS011;65482;50.240;14.302;2023-02-28T09:06:35;12.73;;;6.50;;
76593;SDS011;65482;50.240;14.302;2023-02-28T09:09:00;10.30;;;6.10;;
76593;SDS011;65482;50.240;14.302;2023-02-28T09:11:27;15.43;;;6.88;;
76593;SDS011;65482;50.240;14.302;2023-02-28T09:13:53;17.52;;;7.85;;
76593;SDS011;65482;50.240;14.302;2023-02-28T09:16:21;12.25;;;7.82;;
76593;SDS011;65482;50.240;14.302;2023-02-28T09:18:47;14.18;;;7.05;;
76593;SDS011;65482;50.240;14.302;2023-02-28T09:21:15;14.35;;;7.70;;
76593;SDS011;65482;50.240;14.302;2023-02-28T09:23:45;14.50;;;8.70;;
76593;SDS011;65482;50.240;14.302;2023-02-28T09:26:13;15.52;;;10.50;;
76593;SDS011;65482;50.240;14.302;2023-02-28T09:28:40;23.50;;;14.07;;
76593;SDS011;65482;50.240;14.302;2023-02-28T09:31:06;10.63;;;5.97;;
76593;SDS011;65482;50.240;14.302;2023-02-28T09:33:33;11.27;;;6.88;;
76593;SDS011;65482;50.240;14.302;2023-02-28T09:36:00;12.00;;;6.80;;
76593;SDS011;65482;50.240;14.302;2023-02-28T09:38:27;11.15;;;6.32;;
76593;SDS011;65482;50.240;14.302;2023-02-28T09:40:56;10.63;;;6.63;;
76593;SDS011;65482;50.240;14.302;2023-02-28T09:43:25;10.05;;;5.93;;
76593;SDS011;65482;50.240;14.302;2023-02-28T09:46:03;10.65;;;6.72;;
76593;SDS011;65482;50.240;14.302;2023-02-28T09:48:39;13.13;;;6.03;;
76593;SDS011;65482;50.240;14.302;2023-02-28T14:02:03;12.25;;;7.30;;
76593;SDS011;65482;50.240;14.302;2023-02-28T14:05:19;13.60;;;7.13;;
76593;SDS011;65482;50.240;14.302;2023-02-28T14:09:27;13.93;;;7.18;;
76593;SDS011;65482;50.240;14.302;2023-02-28T15:06:24;16.42;;;7.05;;
76593;SDS011;65482;50.240;14.302;2023-02-28T15:09:19;15.40;;;8.07;;
76593;SDS011;65482;50.240;14.302;2023-02-28T15:12:23;13.30;;;7.78;;
76593;SDS011;65482;50.240;14.302;2023-02-28T15:15:00;17.42;;;9.40;;
76593;SDS011;65482;50.240;14.302;2023-02-28T15:17:48;13.35;;;8.15;;
76593;SDS011;65482;50.240;14.302;2023-02-28T15:20:38;14.35;;;7.85;;
76593;SDS011;65482;50.240;14.302;2023-02-28T15:23:44;12.40;;;7.25;;
76593;SDS011;65482;50.240;14.302;2023-02-28T15:26:51;11.05;;;7.43;;
76593;SDS011;65482;50.240;14.302;2023-02-28T15:29:42;13.25;;;8.15;;
76593;SDS011;65482;50.240;14.302;2023-02-28T15:33:07;15.73;;;9.93;;
76593;SDS011;65482;50.240;14.302;2023-02-28T15:35:51;13.68;;;7.57;;
76593;SDS011;65482;50.240;14.302;2023-02-28T15:38:54;14.85;;;7.32;;
76593;SDS011;65482;50.240;14.302;2023-02-28T15:41:28;12.65;;;7.53;;
76593;SDS011;65482;50.240;14.302;2023-02-28T15:47:06;17.48;;;9.90;;
76593;SDS011;65482;50.240;14.302;2023-02-28T15:49:56;14.27;;;8.73;;
76593;SDS011;65482;50.240;14.302;2023-02-28T15:52:39;12.02;;;7.55;;
76593;SDS011;65482;50.240;14.302;2023-02-28T15:55:22;16.25;;;8.70;;
76593;SDS011;65482;50.240;14.302;2023-02-28T15:58:17;16.05;;;8.40;;
76593;SDS011;65482;50.240;14.302;2023-02-28T16:04:56;17.08;;;9.60;;
76593;SDS011;65482;50.240;14.302;2023-02-28T16:07:47;13.60;;;7.60;;
76593;SDS011;65482;50.240;14.302;2023-02-28T16:10:28;12.40;;;7.47;;
76593;SDS011;65482;50.240;14.302;2023-02-28T16:13:32;11.55;;;6.70;;
76593;SDS011;65482;50.240;14.302;2023-02-28T16:16:20;15.38;;;7.78;;
76593;SDS011;65482;50.240;14.302;2023-02-28T16:18:54;14.63;;;7.82;;
76593;SDS011;65482;50.240;14.302;2023-02-28T16:21:20;14.50;;;8.10;;
76593;SDS011;65482;50.240;14.302;2023-02-28T16:23:45;14.93;;;8.40;;
76593;SDS011;65482;50.240;14.302;2023-02-28T16:26:21;16.73;;;8.55;;
76593;SDS011;65482;50.240;14.302;2023-02-28T16:28:49;14.90;;;9.05;;
76593;SDS011;65482;50.240;14.302;2023-02-28T16:31:16;15.80;;;8.75;;
76593;SDS011;65482;50.240;14.302;2023-02-28T16:33:44;20.23;;;10.98;;
76593;SDS011;65482;50.240;14.302;2023-02-28T16:36:21;17.15;;;9.13;;
76593;SDS011;65482;50.240;14.302;2023-02-28T16:38:50;18.80;;;10.40;;
76593;SDS011;65482;50.240;14.302;2023-02-28T16:41:19;19.58;;;10.93;;
76593;SDS011;65482;50.240;14.302;2023-02-28T16:43:58;20.48;;;10.25;;
76593;SDS011;65482;50.240;14.302;2023-02-28T16:46:44;23.98;;;10.25;;
76593;SDS011;65482;50.240;14.302;2023-02-28T16:49:23;18.95;;;10.15;;
76593;SDS011;65482;50.240;14.302;2023-02-28T16:52:13;17.02;;;9.25;;
76593;SDS011;65482;50.240;14.302;2023-02-28T16:55:03;19.00;;;10.27;;
76593;SDS011;65482;50.240;14.302;2023-02-28T16:57:54;20.13;;;10.43;;
76593;SDS011;65482;50.240;14.302;2023-02-28T17:03:44;21.17;;;10.52;;
76593;SDS011;65482;50.240;14.302;2023-02-28T17:06:48;18.80;;;10.88;;
76593;SDS011;65482;50.240;14.302;2023-02-28T17:09:43;19.83;;;10.48;;
76593;SDS011;65482;50.240;14.302;2023-02-28T17:12:39;22.13;;;10.85;;
76593;SDS011;65482;50.240;14.302;2023-02-28T17:15:13;21.05;;;11.05;;
76593;SDS011;65482;50.240;14.302;2023-02-28T17:18:05;22.23;;;10.40;;
76593;SDS011;65482;50.240;14.302;2023-02-28T17:21:01;20.48;;;10.55;;
76593;SDS011;65482;50.240;14.302;2023-02-28T17:23:48;31.85;;;11.82;;
76593;SDS011;65482;50.240;14.302;2023-02-28T17:26:17;41.85;;;13.48;;
76593;SDS011;65482;50.240;14.302;2023-02-28T17:29:17;29.92;;;12.00;;
76593;SDS011;65482;50.240;14.302;2023-02-28T17:32:30;41.50;;;15.50;;
76593;SDS011;65482;50.240;14.302;2023-02-28T17:35:28;42.72;;;17.48;;
76593;SDS011;65482;50.240;14.302;2023-02-28T17:38:25;43.85;;;17.52;;
76593;SDS011;65482;50.240;14.302;2023-02-28T17:41:02;51.95;;;19.65;;
76593;SDS011;65482;50.240;14.302;2023-02-28T17:47:01;45.50;;;18.80;;
76593;SDS011;65482;50.240;14.302;2023-02-28T17:49:45;55.15;;;21.25;;
76593;SDS011;65482;50.240;14.302;2023-02-28T17:56:02;76.80;;;27.08;;
76593;SDS011;65482;50.240;14.302;2023-02-28T17:58:30;81.25;;;28.27;;
76593;SDS011;65482;50.240;14.302;2023-02-28T18:01:06;83.82;;;28.20;;
76593;SDS011;65482;50.240;14.302;2023-02-28T18:08:51;41.15;;;18.33;;
76593;SDS011;65482;50.240;14.302;2023-02-28T18:11:18;58.90;;;22.85;;
76593;SDS011;65482;50.240;14.302;2023-02-28T18:14:06;50.08;;;20.60;;
76593;SDS011;65482;50.240;14.302;2023-02-28T18:17:22;55.63;;;22.58;;
76593;SDS011;65482;50.240;14.302;2023-02-28T18:20:45;34.95;;;15.60;;
76593;SDS011;65482;50.240;14.302;2023-02-28T18:24:03;38.25;;;17.00;;
76593;SDS011;65482;50.240;14.302;2023-02-28T18:27:35;38.15;;;16.83;;
76593;SDS011;65482;50.240;14.302;2023-02-28T18:37:40;54.85;;;21.35;;
76593;SDS011;65482;50.240;14.302;2023-02-28T18:44:02;85.13;;;30.40;;
76593;SDS011;65482;50.240;14.302;2023-02-28T18:46:46;119.03;;;41.38;;
76593;SDS011;65482;50.240;14.302;2023-02-28T18:49:38;128.63;;;45.40;;
76593;SDS011;65482;50.240;14.302;2023-02-28T18:53:00;108.50;;;40.40;;
76593;SDS011;65482;50.240;14.302;2023-02-28T18:55:43;105.18;;;41.45;;
76593;SDS011;65482;50.240;14.302;2023-02-28T18:58:27;105.70;;;44.45;;
76593;SDS011;65482;50.240;14.302;2023-02-28T19:01:26;94.30;;;39.90;;
76593;SDS011;65482;50.240;14.302;2023-02-28T19:04:02;73.57;;;30.17;;
76593;SDS011;65482;50.240;14.302;2023-02-28T19:06:39;56.45;;;25.77;;
76593;SDS011;65482;50.240;14.302;2023-02-28T19:09:24;60.85;;;25.05;;
76593;SDS011;65482;50.240;14.302;2023-02-28T19:18:42;74.75;;;33.58;;
76593;SDS011;65482;50.240;14.302;2023-02-28T19:21:14;82.38;;;37.33;;
76593;SDS011;65482;50.240;14.302;2023-02-28T19:23:49;74.70;;;34.50;;
76593;SDS011;65482;50.240;14.302;2023-02-28T19:26:57;76.00;;;33.60;;
76593;SDS011;65482;50.240;14.302;2023-02-28T19:29:59;61.53;;;29.30;;
76593;SDS011;65482;50.240;14.302;2023-02-28T19:33:14;61.45;;;27.33;;
76593;SDS011;65482;50.240;14.302;2023-02-28T19:36:01;56.70;;;26.30;;
76593;SDS011;65482;50.240;14.302;2023-02-28T19:39:04;59.17;;;25.02;;
76593;SDS011;65482;50.240;14.302;2023-02-28T19:42:13;60.00;;;24.08;;
76593;SDS011;65482;50.240;14.302;2023-02-28T19:44:57;53.10;;;23.00;;
76593;SDS011;65482;50.240;14.302;2023-02-28T19:54:12;49.85;;;22.80;;
76593;SDS011;65482;50.240;14.302;2023-02-28T20:01:11;45.47;;;21.58;;
76593;SDS011;65482;50.240;14.302;2023-02-28T20:07:56;48.70;;;21.20;;
76593;SDS011;65482;50.240;14.302;2023-02-28T20:11:00;49.33;;;22.08;;
76593;SDS011;65482;50.240;14.302;2023-02-28T20:14:20;52.20;;;23.27;;
76593;SDS011;65482;50.240;14.302;2023-02-28T20:17:27;52.45;;;23.80;;
76593;SDS011;65482;50.240;14.302;2023-02-28T20:20:28;55.60;;;24.50;;
76593;SDS011;65482;50.240;14.302;2023-02-28T20:23:25;59.38;;;24.50;;
76593;SDS011;65482;50.240;14.302;2023-02-28T20:26:25;54.88;;;23.80;;
76593;SDS011;65482;50.240;14.302;2023-02-28T20:33:06;52.40;;;22.25;;
76593;SDS011;65482;50.240;14.302;2023-02-28T20:36:17;60.42;;;22.88;;
76593;SDS011;65482;50.240;14.302;2023-02-28T20:42:18;48.70;;;21.88;;
76593;SDS011;65482;50.240;14.302;2023-02-28T20:45:16;65.03;;;27.25;;
76593;SDS011;65482;50.240;14.302;2023-02-28T20:48:28;61.90;;;26.10;;
76593;SDS011;65482;50.240;14.302;2023-02-28T20:51:14;54.95;;;24.50;;
76593;SDS011;65482;50.240;14.302;2023-02-28T20:58:19;58.58;;;24.70;;
76593;SDS011;65482;50.240;14.302;2023-02-28T21:04:30;50.88;;;23.35;;
76593;SDS011;65482;50.240;14.302;2023-02-28T21:07:25;55.78;;;23.02;;
76593;SDS011;65482;50.240;14.302;2023-02-28T21:13:59;49.50;;;22.40;;
76593;SDS011;65482;50.240;14.302;2023-02-28T21:20:30;50.45;;;23.00;;
76593;SDS011;65482;50.240;14.302;2023-02-28T21:23:56;56.28;;;26.63;;
76593;SDS011;65482;50.240;14.302;2023-02-28T21:30:27;61.70;;;26.07;;
76593;SDS011;65482;50.240;14.302;2023-02-28T21:37:10;58.30;;;23.48;;
76593;SDS011;65482;50.240;14.302;2023-02-28T21:40:29;56.42;;;24.20;;
76593;SDS011;65482;50.240;14.302;2023-02-28T21:43:25;53.38;;;23.17;;
76593;SDS011;65482;50.240;14.302;2023-02-28T21:46:50;51.97;;;23.45;;
76593;SDS011;65482;50.240;14.302;2023-02-28T21:53:37;60.67;;;24.90;;
76593;SDS011;65482;50.240;14.302;2023-02-28T21:56:34;53.63;;;23.35;;
76593;SDS011;65482;50.240;14.302;2023-02-28T21:59:25;60.72;;;26.38;;
76593;SDS011;65482;50.240;14.302;2023-02-28T22:02:12;59.88;;;26.05;;
76593;SDS011;65482;50.240;14.302;2023-02-28T22:05:22;64.45;;;25.33;;
76593;SDS011;65482;50.240;14.302;2023-02-28T22:08:08;57.65;;;27.20;;
76593;SDS011;65482;50.240;14.302;2023-02-28T22:14:33;54.17;;;25.40;;
76593;SDS011;65482;50.240;14.302;2023-02-28T22:17:39;60.92;;;25.92;;
76593;SDS011;65482;50.240;14.302;2023-02-28T22:20:58;56.90;;;25.42;;
76593;SDS011;65482;50.240;14.302;2023-02-28T22:24:03;65.60;;;26.23;;
76593;SDS011;65482;50.240;14.302;2023-02-28T22:27:18;60.60;;;25.27;;
76593;SDS011;65482;50.240;14.302;2023-02-28T22:30:11;59.67;;;24.98;;
76593;SDS011;65482;50.240;14.302;2023-02-28T22:33:26;52.88;;;23.88;;
76593;SDS011;65482;50.240;14.302;2023-02-28T22:36:16;55.95;;;25.48;;
76593;SDS011;65482;50.240;14.302;2023-02-28T22:39:23;59.15;;;24.15;;
76593;SDS011;65482;50.240;14.302;2023-02-28T22:42:30;56.50;;;25.35;;
76593;SDS011;65482;50.240;14.302;2023-02-28T22:48:36;67.15;;;25.50;;
76593;SDS011;65482;50.240;14.302;2023-02-28T22:51:31;62.80;;;26.40;;
76593;SDS011;65482;50.240;14.302;2023-02-28T22:54:35;70.53;;;25.98;;
76593;SDS011;65482;50.240;14.302;2023-02-28T22:57:38;65.80;;;26.38;;
76593;SDS011;65482;50.240;14.302;2023-02-28T23:00:20;67.40;;;26.08;;
76593;SDS011;65482;50.240;14.302;2023-02-28T23:03:16;71.28;;;26.05;;
76593;SDS011;65482;50.240;14.302;2023-02-28T23:06:34;60.65;;;26.13;;
76593;SDS011;65482;50.240;14.302;2023-02-28T23:13:34;62.47;;;24.73;;
76593;SDS011;65482;50.240;14.302;2023-02-28T23:17:03;59.70;;;22.25;;
76593;SDS011;65482;50.240;14.302;2023-02-28T23:19:55;59.92;;;23.70;;
76593;SDS011;65482;50.240;14.302;2023-02-28T23:22:52;55.78;;;22.92;;
76593;SDS011;65482;50.240;14.302;2023-02-28T23:25:42;59.75;;;24.40;;
76593;SDS011;65482;50.240;14.302;2023-02-28T23:28:29;63.55;;;23.83;;
76593;SDS011;65482;50.240;14.302;2023-02-28T23:31:22;63.65;;;24.65;;
76593;SDS011;65482;50.240;14.302;2023-02-28T23:34:09;57.30;;;23.75;;
76593;SDS011;65482;50.240;14.302;2023-02-28T23:37:02;59.15;;;23.65;;
76593;SDS011;65482;50.240;14.302;2023-02-28T23:40:12;57.00;;;23.20;;
76593;SDS011;65482;50.240;14.302;2023-02-28T23:43:09;56.92;;;23.83;;
76593;SDS011;65482;50.240;14.302;2023-02-28T23:46:18;53.55;;;23.50;;
76593;SDS011;65482;50.240;14.302;2023-02-28T23:49:36;56.38;;;22.67;;
76593;SDS011;65482;50.240;14.302;2023-02-28T23:52:53;52.55;;;22.77;;
76593;SDS011;65482;50.240;14.302;2023-02-28T23:55:44;55.17;;;23.88;;
76593;SDS011;65482;50.240;14.302;2023-02-28T23:58:47;64.53;;;24.20;;
